createdAt,value
2019-04-11T00:10:22.841Z,99896.00
2019-04-11T00:21:04.853Z,99946.00
2019-04-11T00:31:49.420Z,99964.00
2019-04-11T00:42:28.659Z,100011.00
2019-04-11T00:53:13.940Z,100040.00
2019-04-11T01:03:57.363Z,100061.00
2019-04-11T01:14:41.161Z,100093.00
2019-04-11T01:25:24.392Z,100135.00
2019-04-11T01:36:07.264Z,100184.00
2019-04-11T01:46:52.032Z,100228.00
2019-04-11T01:57:34.625Z,100260.00
2019-04-11T02:08:18.109Z,100292.00
2019-04-11T02:19:01.642Z,100337.00
2019-04-11T02:29:43.184Z,100367.00
2019-04-11T02:40:28.191Z,100395.00
2019-04-11T02:51:12.441Z,100422.00
2019-04-11T03:01:53.671Z,100456.00
2019-04-11T03:12:38.358Z,100476.00
2019-04-11T03:23:23.598Z,100518.00
2019-04-11T03:35:06.257Z,100533.00
2019-04-11T03:45:15.105Z,100598.00
2019-04-11T03:55:32.551Z,100624.00
2019-04-11T04:06:16.833Z,100666.00
2019-04-11T04:16:56.471Z,100672.00
2019-04-11T04:27:38.766Z,100712.00
2019-04-11T04:38:15.699Z,100721.00
2019-04-11T04:48:58.498Z,100760.00
2019-04-11T04:59:42.550Z,100766.00
2019-04-11T05:10:24.154Z,100770.00
2019-04-11T05:21:05.334Z,100762.00
2019-04-11T05:31:49.293Z,100742.00
2019-04-11T05:42:33.467Z,100703.00
2019-04-11T05:53:21.322Z,99657.00
2019-04-11T06:04:15.193Z,98680.00
2019-04-11T06:14:59.693Z,98116.00
2019-04-11T06:25:46.765Z,97782.00
2019-04-11T06:36:26.673Z,98679.00
2019-04-11T06:47:05.394Z,99641.00
2019-04-11T06:57:45.879Z,99903.00
2019-04-11T07:08:27.604Z,100008.00
2019-04-11T07:19:11.407Z,100011.00
2019-04-11T07:29:52.066Z,99942.00
2019-04-11T07:40:33.341Z,99937.00
2019-04-11T07:51:17.464Z,99886.00
2019-04-11T08:01:59.871Z,99823.00
2019-04-11T08:12:43.864Z,99770.00
2019-04-11T08:23:29.619Z,99757.00
2019-04-11T08:34:09.277Z,99702.00
2019-04-11T08:44:52.132Z,99691.00
2019-04-11T08:55:43.719Z,99699.00
2019-04-11T09:06:12.619Z,99618.00
2019-04-11T09:16:56.257Z,99596.00
2019-04-11T09:27:38.557Z,99587.00
2019-04-11T09:38:22.833Z,99563.00
2019-04-11T09:49:07.105Z,99538.00
2019-04-11T09:59:51.855Z,99501.00
2019-04-11T10:10:31.417Z,99471.00
2019-04-11T10:21:15.497Z,99480.00
2019-04-11T10:31:50.620Z,99404.00
2019-04-11T10:42:30.738Z,99361.00
2019-04-11T10:53:07.185Z,99294.00
2019-04-11T11:03:49.388Z,99187.00
2019-04-11T11:14:29.025Z,99239.00
2019-04-11T11:25:12.710Z,99215.00
2019-04-11T11:35:50.349Z,99187.00
2019-04-11T11:46:31.581Z,99103.00
2019-04-11T11:57:11.151Z,99060.00
2019-04-11T12:07:51.467Z,99069.00
2019-04-11T12:18:35.252Z,99017.00
2019-04-11T12:29:02.985Z,98990.00
2019-04-11T12:39:42.129Z,98936.00
2019-04-11T12:50:21.174Z,98870.00
2019-04-11T13:01:01.987Z,98787.00
2019-04-11T13:11:43.321Z,98773.00
2019-04-11T13:22:23.139Z,98710.00
2019-04-11T13:33:04.361Z,98579.00
2019-04-11T13:43:44.947Z,98635.00
2019-04-11T13:54:21.482Z,98608.00
2019-04-11T14:04:59.995Z,98537.00
2019-04-11T14:15:36.619Z,98607.00
2019-04-11T14:26:16.981Z,98529.00
2019-04-11T14:36:54.179Z,98540.00
2019-04-11T14:47:29.988Z,98450.00
2019-04-11T14:58:10.047Z,98526.00
2019-04-11T15:08:47.439Z,98543.00
2019-04-11T15:19:17.777Z,98508.00
2019-04-11T15:29:54.541Z,98560.00
2019-04-11T15:40:37.630Z,98511.00
2019-04-11T15:51:21.778Z,98458.00
2019-04-11T16:02:05.360Z,98622.00
2019-04-11T16:12:47.169Z,98558.00
2019-04-11T16:23:32.944Z,98544.00
2019-04-11T16:34:16.202Z,98602.00
2019-04-11T16:44:57.525Z,98540.00
2019-04-11T16:55:37.030Z,98726.00
2019-04-11T17:06:17.168Z,98670.00
2019-04-11T17:16:54.991Z,98756.00
2019-04-11T17:27:36.712Z,98817.00
2019-04-11T17:38:15.396Z,98834.00
2019-04-11T17:48:58.553Z,98893.00
2019-04-11T17:59:38.354Z,99012.00
2019-04-11T18:10:13.389Z,99052.00
2019-04-11T18:20:56.372Z,99154.00
2019-04-11T18:31:39.601Z,99217.00
2019-04-11T18:42:23.344Z,99297.00
2019-04-11T18:53:00.200Z,99343.00
2019-04-11T19:03:43.772Z,99388.00
2019-04-11T19:14:25.621Z,99481.00
2019-04-11T19:25:04.486Z,99606.00
2019-04-11T19:35:47.490Z,99643.00
2019-04-11T19:46:29.792Z,99675.00
2019-04-11T19:57:12.053Z,99727.00
2019-04-11T20:07:56.866Z,99758.00
2019-04-11T20:18:37.631Z,99789.00
2019-04-11T20:29:21.170Z,99825.00
2019-04-11T20:39:58.708Z,99860.00
2019-04-11T20:50:39.770Z,99915.00
2019-04-11T21:01:23.807Z,99956.00
2019-04-11T21:12:04.900Z,99993.00
2019-04-11T21:22:43.220Z,100079.00
2019-04-11T21:33:23.590Z,100085.00
2019-04-11T21:43:58.247Z,100146.00
2019-04-11T21:54:39.856Z,100234.00
2019-04-11T22:05:21.727Z,100233.00
2019-04-11T22:16:01.808Z,100244.00
2019-04-11T22:17:16.059Z,100247.00
2019-04-11T22:27:53.890Z,100250.00
2019-04-11T22:38:31.894Z,100252.00
2019-04-11T22:49:12.286Z,100286.00
2019-04-11T22:59:51.055Z,100299.00
2019-04-11T23:10:35.251Z,100341.00
2019-04-11T23:21:20.643Z,100377.00
2019-04-11T23:32:02.232Z,100453.00
2019-04-11T23:42:45.318Z,100511.00
2019-04-11T23:53:28.153Z,100567.00
